Time;durP1;ratioP1;P1;durP2;ratioP2;P2;SDS_P1;SDS_P2;PMS_P1;PMS_P2;Temp;Humidity;BMP_temperature;BMP_pressure;BME280_temperature;BME280_humidity;BME280_pressure;Samples;Min_cycle;Max_cycle;Signal;HPM_P1;HPM_P2
2024/04/02 00:00:35;;;;;;;;;2.67;1.00;;;;;13.88;100.00;99905.91;2096925;28;46282;-68
2024/04/02 00:01:35;;;;;;;;;0.00;0.00;;;;;13.87;100.00;99903.31;2104720;27;46449;-68
2024/04/02 00:02:36;;;;;;;;;2.00;1.00;;;;;13.81;100.00;99905.31;2105322;27;46434;-68
2024/04/02 00:03:37;;;;;;;;;0.67;0.00;;;;;13.81;100.00;99916.00;2105059;28;46588;-69
2024/04/02 00:04:37;;;;;;;;;3.00;1.50;;;;;13.80;100.00;99914.28;2104712;28;46579;-70
2024/04/02 00:05:40;;;;;;;;;1.00;1.00;;;;;13.79;100.00;99915.22;2097076;28;46543;-69
2024/04/02 00:06:41;;;;;;;;;0.25;0.25;;;;;13.78;100.00;99904.63;2099363;28;46828;-70
2024/04/02 00:07:41;;;;;;;;;2.00;2.00;;;;;13.82;100.00;99914.19;2105575;27;46787;-68
2024/04/02 00:08:41;;;;;;;;;1.67;1.00;;;;;13.85;100.00;99906.06;2104888;27;46230;-69
2024/04/02 00:09:42;;;;;;;;;1.00;0.67;;;;;13.86;100.00;99914.94;2105218;27;46884;-69
2024/04/02 00:10:43;;;;;;;;;2.00;0.33;;;;;13.86;100.00;99920.25;2105422;27;46670;-69
2024/04/02 00:11:43;;;;;;;;;2.50;1.00;;;;;13.86;100.00;99922.94;2105018;27;46972;-69
2024/04/02 00:12:43;;;;;;;;;2.00;2.00;;;;;13.84;100.00;99915.84;2103801;27;45092;-69
2024/04/02 00:13:45;;;;;;;;;1.00;1.00;;;;;13.83;100.00;99919.44;2100118;27;45531;-68
2024/04/02 00:14:45;;;;;;;;;1.00;1.00;;;;;13.84;100.00;99929.19;2105032;28;46727;-68
2024/04/02 00:15:47;;;;;;;;;3.33;1.00;;;;;13.84;100.00;99925.66;2106058;28;45583;-69
2024/04/02 00:16:48;;;;;;;;;3.00;1.50;;;;;13.83;100.00;99924.78;2105065;28;47051;-69
2024/04/02 00:17:48;;;;;;;;;4.00;1.00;;;;;13.83;100.00;99926.59;2104759;27;46316;-68
2024/04/02 00:18:48;;;;;;;;;2.00;1.67;;;;;13.81;100.00;99921.31;2097131;28;46476;-70
2024/04/02 00:19:49;;;;;;;;;1.67;1.67;;;;;13.77;100.00;99925.09;2097210;28;45595;-70
2024/04/02 00:20:49;;;;;;;;;0.00;0.00;;;;;13.75;100.00;99923.44;2104845;28;46090;-70
2024/04/02 00:21:50;;;;;;;;;3.00;1.67;;;;;13.75;100.00;99932.31;2112081;27;45529;-70
2024/04/02 00:22:50;;;;;;;;;1.00;1.00;;;;;13.77;100.00;99925.09;2103595;27;45837;-69
2024/04/02 00:23:51;;;;;;;;;2.67;2.00;;;;;13.77;100.00;99930.41;2096500;28;46559;-69
2024/04/02 00:24:51;;;;;;;;;2.67;2.00;;;;;13.80;100.00;99932.06;2102061;28;45626;-68
2024/04/02 00:26:01;;;;;;;;;1.00;1.00;;;;;13.80;100.00;99930.28;2105273;28;45826;-69
2024/04/02 00:27:02;;;;;;;;;1.00;1.00;;;;;13.79;100.00;99939.22;2096765;28;46798;-68
2024/04/02 00:28:03;;;;;;;;;2.00;2.00;;;;;13.79;100.00;99933.88;2101213;28;46387;-69
2024/04/02 00:29:03;;;;;;;;;3.00;1.00;;;;;13.79;100.00;99933.88;2103584;27;46780;-68
2024/04/02 00:30:04;;;;;;;;;2.00;2.00;;;;;13.81;100.00;99940.00;2104873;27;46765;-69
2024/04/02 00:31:06;;;;;;;;;2.00;1.75;;;;;13.81;100.00;99942.66;2096645;28;46423;-70
2024/04/02 00:32:06;;;;;;;;;1.00;1.00;;;;;13.82;100.00;99948.84;2087201;28;46342;-69
2024/04/02 00:33:07;;;;;;;;;2.00;1.33;;;;;13.82;100.00;99939.06;2104443;28;46596;-68
2024/04/02 00:34:07;;;;;;;;;1.00;1.00;;;;;13.78;100.00;99942.81;2105076;28;46354;-69
2024/04/02 00:35:07;;;;;;;;;3.00;2.00;;;;;13.80;100.00;99942.75;2104824;28;45492;-69
2024/04/02 00:36:08;;;;;;;;;1.33;1.33;;;;;13.81;100.00;99944.47;2108387;27;46626;-69
2024/04/02 00:37:08;;;;;;;;;1.00;1.00;;;;;13.79;100.00;99947.22;2102185;27;46589;-69
2024/04/02 00:38:09;;;;;;;;;1.33;1.00;;;;;13.82;100.00;99947.06;2104176;28;46755;-69
2024/04/02 00:39:09;;;;;;;;;3.67;2.00;;;;;13.82;100.00;99947.06;2102945;27;46867;-69
2024/04/02 00:40:09;;;;;;;;;1.33;1.33;;;;;13.84;100.00;99954.97;2105124;28;45622;-69
2024/04/02 00:41:10;;;;;;;;;1.00;1.00;;;;;13.84;100.00;99955.84;2103766;28;47434;-67
2024/04/02 00:42:10;;;;;;;;;3.00;1.00;;;;;13.83;100.00;99948.78;2100425;28;45579;-69
2024/04/02 00:43:11;;;;;;;;;3.00;3.00;;;;;13.79;100.00;99951.69;2102998;27;46528;-69
2024/04/02 00:44:12;;;;;;;;;2.25;2.00;;;;;13.78;100.00;99949.94;2104654;27;46593;-69
2024/04/02 00:45:13;;;;;;;;;2.00;1.00;;;;;13.77;100.00;99951.75;2102481;28;46311;-69
2024/04/02 00:46:14;;;;;;;;;2.00;1.00;;;;;13.76;100.00;99957.16;2104143;28;46493;-70
2024/04/02 00:47:14;;;;;;;;;1.67;1.00;;;;;13.76;100.00;99947.38;2105095;27;46686;-69
2024/04/02 00:48:16;;;;;;;;;2.00;2.00;;;;;13.76;100.00;99954.50;2104986;28;46533;-69
2024/04/02 00:49:16;;;;;;;;;2.25;1.00;;;;;13.74;100.00;99951.91;2104839;28;47170;-69
2024/04/02 00:50:17;;;;;;;;;1.33;1.00;;;;;13.75;100.00;99950.97;2104648;27;46654;-69
2024/04/02 00:51:17;;;;;;;;;1.00;1.00;;;;;13.77;100.00;99958.91;2105583;28;45537;-69
2024/04/02 00:52:17;;;;;;;;;2.00;1.00;;;;;13.78;100.00;99956.16;2103332;28;46645;-69
2024/04/02 00:53:20;;;;;;;;;3.33;2.00;;;;;13.79;100.00;99968.53;2105469;28;45824;-69
2024/04/02 00:54:20;;;;;;;;;4.25;2.00;;;;;13.79;100.00;99962.34;2104881;27;46999;-70
2024/04/02 00:55:21;;;;;;;;;2.00;2.00;;;;;13.79;100.00;99965.00;2103417;28;45706;-70
2024/04/02 00:56:21;;;;;;;;;2.00;2.00;;;;;13.79;100.00;99962.34;2104788;28;46670;-69
2024/04/02 00:57:22;;;;;;;;;1.33;1.33;;;;;13.85;100.00;99970.06;2105466;27;45363;-69
2024/04/02 00:58:24;;;;;;;;;3.00;2.00;;;;;13.86;100.00;99963.81;2102714;27;46740;-70
2024/04/02 00:59:24;;;;;;;;;2.00;1.00;;;;;13.79;100.00;99965.88;2096758;28;46026;-69
2024/04/02 01:00:25;;;;;;;;;2.33;1.00;;;;;13.78;100.00;99977.47;2100167;28;45878;-68
2024/04/02 01:01:25;;;;;;;;;1.67;1.00;;;;;13.77;100.00;99969.56;2104505;28;46303;-68
2024/04/02 01:02:26;;;;;;;;;3.00;1.00;;;;;13.77;100.00;99985.56;2103841;28;46482;-70
2024/04/02 01:03:26;;;;;;;;;2.00;0.67;;;;;13.77;100.00;99975.75;2101111;27;46643;-69
2024/04/02 01:04:26;;;;;;;;;1.00;1.00;;;;;13.78;100.00;99981.94;2100315;28;46654;-68
2024/04/02 01:05:27;;;;;;;;;5.00;2.00;;;;;13.77;100.00;99978.41;2102604;28;46257;-69
2024/04/02 01:06:28;;;;;;;;;2.00;1.00;;;;;13.76;100.00;99984.69;2105211;27;46451;-69
2024/04/02 01:07:28;;;;;;;;;2.75;2.00;;;;;13.73;100.00;99974.19;2104932;28;45685;-68
2024/04/02 01:08:30;;;;;;;;;2.00;2.00;;;;;13.72;100.00;99985.78;2104924;28;44967;-68
2024/04/02 01:09:32;;;;;;;;;2.25;1.00;;;;;13.73;100.00;99976.84;2104682;27;46483;-68
2024/04/02 01:10:32;;;;;;;;;1.00;1.00;;;;;13.69;100.00;99977.91;2102756;28;46446;-68
2024/04/02 01:11:35;;;;;;;;;3.67;2.00;;;;;13.69;100.00;99988.56;2102525;27;46232;-68
2024/04/02 01:12:35;;;;;;;;;2.75;1.75;;;;;13.72;100.00;99984.88;2104769;27;46619;-68
2024/04/02 01:13:36;;;;;;;;;1.33;1.33;;;;;13.70;100.00;99984.97;2105386;27;46391;-68
2024/04/02 01:14:40;;;;;;;;;1.00;1.00;;;;;13.71;100.00;99985.81;2104115;28;46324;-68
2024/04/02 01:15:40;;;;;;;;;1.50;1.00;;;;;13.69;100.00;99985.91;2104440;28;46679;-69
2024/04/02 01:16:42;;;;;;;;;1.00;1.00;;;;;13.69;100.00;99982.38;2102991;27;46288;-70
2024/04/02 01:17:42;;;;;;;;;1.75;1.50;;;;;13.62;100.00;99981.81;2105121;27;46878;-70
2024/04/02 01:18:46;;;;;;;;;2.00;2.00;;;;;13.62;100.00;99986.28;2104803;27;46577;-70
2024/04/02 01:19:46;;;;;;;;;3.75;2.00;;;;;13.61;100.00;99990.75;2104300;27;46319;-69
2024/04/02 01:20:47;;;;;;;;;4.00;2.00;;;;;13.61;100.00;99998.75;2103292;27;46592;-70
2024/04/02 01:21:47;;;;;;;;;1.00;1.00;;;;;13.60;100.00;99994.34;2102860;27;45712;-69
2024/04/02 01:22:47;;;;;;;;;2.00;2.00;;;;;13.61;100.00;99995.22;2104757;27;46180;-69
2024/04/02 01:23:48;;;;;;;;;4.00;2.00;;;;;13.60;100.00;99997.00;2105523;28;46044;-69
2024/04/02 01:24:57;;;;;;;;;3.67;2.00;;;;;13.62;100.00;99997.81;2104761;28;46553;-71
2024/04/02 01:25:58;;;;;;;;;2.00;1.50;;;;;13.62;100.00;100007.59;2104560;28;46992;-69
2024/04/02 01:26:59;;;;;;;;;2.00;2.00;;;;;13.61;100.00;100006.72;2104906;27;46283;-69
2024/04/02 01:27:59;;;;;;;;;2.00;2.00;;;;;13.61;100.00;100004.06;2105778;27;46072;-70
2024/04/02 01:29:03;;;;;;;;;2.00;2.00;;;;;13.61;100.00;100004.06;2104463;27;45453;-69
2024/04/02 01:30:04;;;;;;;;;2.00;1.50;;;;;13.60;100.00;100005.00;2105477;27;46574;-69
2024/04/02 01:31:04;;;;;;;;;4.00;2.33;;;;;13.62;100.00;100005.78;2102710;28;46933;-69
2024/04/02 01:32:05;;;;;;;;;1.67;1.67;;;;;13.67;100.00;100006.44;2104965;27;46851;-69
2024/04/02 01:33:05;;;;;;;;;2.67;1.67;;;;;13.68;100.00;100008.16;2104909;28;46656;-69
2024/04/02 01:34:07;;;;;;;;;2.00;2.00;;;;;13.66;100.00;100001.19;2104747;28;45877;-69
2024/04/02 01:35:07;;;;;;;;;1.25;1.25;;;;;13.69;100.00;100012.56;2105032;27;46880;-68
2024/04/02 01:36:07;;;;;;;;;1.33;1.33;;;;;13.73;100.00;100011.50;2102413;28;46720;-69
2024/04/02 01:37:08;;;;;;;;;2.67;2.33;;;;;13.75;100.00;100009.63;2104887;27;46158;-69
2024/04/02 01:38:08;;;;;;;;;2.00;2.00;;;;;13.76;100.00;100010.50;2104973;27;45911;-69
2024/04/02 01:39:08;;;;;;;;;2.33;1.67;;;;;13.76;100.00;100003.38;2102937;27;45142;-69
2024/04/02 01:40:09;;;;;;;;;2.67;2.00;;;;;13.76;100.00;100013.16;2104972;27;45347;-69
2024/04/02 01:41:09;;;;;;;;;1.00;1.00;;;;;13.73;100.00;100013.31;2100711;27;46953;-69
2024/04/02 01:42:10;;;;;;;;;2.00;2.00;;;;;13.71;100.00;100021.34;2101273;28;46498;-69
2024/04/02 01:43:10;;;;;;;;;3.33;1.33;;;;;13.71;100.00;100018.69;2098990;27;46240;-69
2024/04/02 01:44:10;;;;;;;;;3.00;2.00;;;;;13.72;100.00;100024.88;2097859;28;46242;-69
2024/04/02 01:45:11;;;;;;;;;1.00;1.00;;;;;13.70;100.00;100022.28;2088358;28;45952;-70
2024/04/02 01:46:13;;;;;;;;;3.67;2.00;;;;;13.71;100.00;100026.69;2088263;28;46532;-69
2024/04/02 01:47:13;;;;;;;;;1.50;1.00;;;;;13.70;100.00;100022.28;2100910;28;45708;-69
2024/04/02 01:48:13;;;;;;;;;2.67;2.67;;;;;13.69;100.00;100025.03;2105046;27;45554;-69
2024/04/02 01:49:14;;;;;;;;;2.00;1.00;;;;;13.67;100.00;100025.09;2103141;28;46177;-69
2024/04/02 01:50:14;;;;;;;;;3.33;3.33;;;;;13.65;100.00;100026.97;2094509;28;47120;-69
2024/04/02 01:51:14;;;;;;;;;1.00;1.00;;;;;13.63;100.00;100031.53;2099197;28;46987;-69
2024/04/02 01:52:15;;;;;;;;;1.00;1.00;;;;;13.61;100.00;100027.19;2103957;28;47062;-69
2024/04/02 01:53:15;;;;;;;;;3.67;1.00;;;;;13.61;100.00;100027.19;2104776;28;46393;-69
2024/04/02 01:54:15;;;;;;;;;4.00;3.00;;;;;13.59;100.00;100034.38;2099427;28;46309;-69
2024/04/02 01:55:16;;;;;;;;;3.33;2.33;;;;;13.59;100.00;100032.56;2097611;28;45250;-69
2024/04/02 01:56:16;;;;;;;;;1.00;1.00;;;;;13.59;100.00;100032.56;2104459;27;46450;-69
2024/04/02 01:57:16;;;;;;;;;2.00;1.00;;;;;13.58;100.00;100035.31;2104889;27;46906;-70
2024/04/02 01:58:17;;;;;;;;;2.33;2.33;;;;;13.58;100.00;100033.50;2104477;28;44996;-69
2024/04/02 01:59:17;;;;;;;;;5.00;2.00;;;;;13.55;100.00;100031.00;2097262;27;45244;-71
2024/04/02 02:00:18;;;;;;;;;3.33;2.00;;;;;13.53;100.00;100024.88;2097425;28;46297;-71
2024/04/02 02:01:18;;;;;;;;;2.00;2.00;;;;;13.54;100.00;100030.13;2105130;27;46686;-69
2024/04/02 02:02:19;;;;;;;;;1.00;1.00;;;;;13.55;100.00;100025.66;2100138;28;46410;-70
2024/04/02 02:03:19;;;;;;;;;1.00;1.00;;;;;13.57;100.00;100030.91;2103302;28;46196;-70
2024/04/02 02:04:19;;;;;;;;;1.00;1.00;;;;;13.58;100.00;100038.84;2097016;28;46238;-70
2024/04/02 02:05:19;;;;;;;;;1.00;1.00;;;;;13.56;100.00;100032.72;2099253;28;46793;-69
2024/04/02 02:06:20;;;;;;;;;1.00;1.00;;;;;13.55;100.00;100031.00;2104925;27;46009;-69
2024/04/02 02:07:21;;;;;;;;;2.00;2.00;;;;;13.54;100.00;100034.59;2098476;27;45575;-70
2024/04/02 02:08:21;;;;;;;;;3.67;2.00;;;;;13.48;100.00;100043.75;2096653;28;46238;-70
2024/04/02 02:09:21;;;;;;;;;4.00;1.33;;;;;13.50;100.00;100041.00;2095953;28;46168;-69
2024/04/02 02:10:22;;;;;;;;;2.00;2.00;;;;;13.40;100.00;100055.66;2101091;28;46201;-68
2024/04/02 02:11:22;;;;;;;;;2.00;1.67;;;;;13.38;100.00;100052.19;2105076;27;46354;-70
2024/04/02 02:12:22;;;;;;;;;1.00;1.00;;;;;13.36;100.00;100051.41;2103780;28;46385;-70
2024/04/02 02:13:23;;;;;;;;;1.33;1.33;;;;;13.34;100.00;100056.81;2103561;28;46565;-70
2024/04/02 02:14:23;;;;;;;;;2.00;2.00;;;;;13.35;100.00;100053.22;2104776;28;46103;-70
2024/04/02 02:15:23;;;;;;;;;2.67;2.00;;;;;13.37;100.00;100051.34;2098140;27;46376;-68
2024/04/02 02:16:24;;;;;;;;;3.00;3.00;;;;;13.40;100.00;100058.31;2097396;28;45603;-69
2024/04/02 02:17:24;;;;;;;;;4.67;1.00;;;;;13.41;100.00;100057.41;2099564;27;46712;-69
2024/04/02 02:18:25;;;;;;;;;2.00;1.00;;;;;13.41;100.00;100057.41;2099868;28;46649;-68
2024/04/02 02:19:26;;;;;;;;;1.00;0.25;;;;;13.43;100.00;100060.84;2099992;28;46885;-69
2024/04/02 02:20:26;;;;;;;;;1.00;1.00;;;;;13.51;100.00;100062.25;2103635;28;46465;-68
2024/04/02 02:21:26;;;;;;;;;2.00;1.00;;;;;13.48;100.00;100062.41;2104037;27;46922;-70
2024/04/02 02:22:26;;;;;;;;;1.00;1.00;;;;;13.44;100.00;100067.91;2104923;27;46205;-70
2024/04/02 02:23:27;;;;;;;;;1.00;1.00;;;;;13.44;100.00;100067.91;2106473;27;46361;-70
2024/04/02 02:24:28;;;;;;;;;2.00;2.00;;;;;13.44;100.00;100070.56;2102587;27;46530;-70
2024/04/02 02:25:28;;;;;;;;;2.67;1.67;;;;;13.45;100.00;100069.63;2102669;27;46279;-69
2024/04/02 02:26:28;;;;;;;;;4.00;2.00;;;;;13.42;100.00;100070.66;2102026;28;46705;-70
2024/04/02 02:27:29;;;;;;;;;1.67;1.67;;;;;13.46;100.00;100066.91;2105861;27;46462;-69
2024/04/02 02:28:29;;;;;;;;;2.00;2.00;;;;;13.46;100.00;100061.56;2107140;27;45584;-69
2024/04/02 02:29:29;;;;;;;;;1.00;1.00;;;;;13.45;100.00;100069.63;2113675;27;46687;-70
2024/04/02 02:30:30;;;;;;;;;4.00;2.67;;;;;13.41;100.00;100068.06;2105966;27;46684;-69
2024/04/02 02:31:30;;;;;;;;;2.33;1.00;;;;;13.43;100.00;100074.19;2106401;27;46809;-69
2024/04/02 02:32:30;;;;;;;;;2.00;2.00;;;;;13.43;100.00;100067.03;2106044;27;45899;-69
2024/04/02 02:33:31;;;;;;;;;1.33;1.00;;;;;13.41;100.00;100074.25;2104925;27;46623;-68
2024/04/02 02:34:31;;;;;;;;;4.00;2.67;;;;;13.40;100.00;100077.84;2105575;27;46411;-69
2024/04/02 02:35:32;;;;;;;;;1.67;1.00;;;;;13.35;100.00;100079.00;2099611;28;45445;-69
2024/04/02 02:36:32;;;;;;;;;1.00;1.00;;;;;13.35;100.00;100068.34;2105140;28;46741;-69
2024/04/02 02:37:32;;;;;;;;;2.67;1.67;;;;;13.33;100.00;100076.38;2100941;27;46300;-68
2024/04/02 02:38:32;;;;;;;;;1.00;1.00;;;;;13.33;100.00;100081.69;2106022;27;45684;-68
2024/04/02 02:39:33;;;;;;;;;1.67;1.00;;;;;13.32;100.00;100081.75;2094405;28;45972;-69
2024/04/02 02:40:34;;;;;;;;;0.75;0.75;;;;;13.29;100.00;100076.56;2096187;28;46468;-69
2024/04/02 02:41:34;;;;;;;;;1.00;1.00;;;;;13.31;100.00;100072.91;2102655;27;46012;-68
2024/04/02 02:42:35;;;;;;;;;2.00;2.00;;;;;13.31;100.00;100088.91;2102306;28;46328;-67
2024/04/02 02:43:35;;;;;;;;;1.33;0.00;;;;;13.31;100.00;100083.56;2099374;28;46505;-68
2024/04/02 02:44:35;;;;;;;;;3.00;3.00;;;;;13.31;100.00;100069.38;2104041;28;46001;-69
2024/04/02 02:45:36;;;;;;;;;1.33;1.33;;;;;13.32;100.00;100079.97;2100532;28;46130;-70
2024/04/02 02:46:36;;;;;;;;;3.00;1.33;;;;;13.34;100.00;100074.56;2105999;27;45542;-69
2024/04/02 02:47:36;;;;;;;;;2.00;2.00;;;;;13.33;100.00;100081.69;2106058;27;46078;-68
2024/04/02 02:48:36;;;;;;;;;2.00;1.67;;;;;13.32;100.00;100079.09;2105881;28;45372;-68
2024/04/02 02:49:37;;;;;;;;;3.33;2.67;;;;;13.32;100.00;100085.31;2104310;28;46214;-69
2024/04/02 02:50:37;;;;;;;;;2.67;1.00;;;;;13.29;100.00;100084.56;2099381;27;46498;-69
2024/04/02 02:51:37;;;;;;;;;6.33;2.00;;;;;13.26;100.00;100085.56;2101668;27;48015;-69
2024/04/02 02:52:38;;;;;;;;;3.00;2.00;;;;;13.25;100.00;100095.38;2090552;28;45467;-69
2024/04/02 02:53:38;;;;;;;;;1.00;0.67;;;;;13.25;100.00;100086.50;2095443;28;46320;-68
2024/04/02 02:54:38;;;;;;;;;3.00;2.00;;;;;13.25;100.00;100092.69;2102273;28;45526;-68
2024/04/02 02:55:39;;;;;;;;;2.00;1.67;;;;;13.23;100.00;100099.03;2103456;27;46249;-69
2024/04/02 02:56:40;;;;;;;;;2.00;2.00;;;;;13.25;100.00;100103.38;2100490;27;46235;-69
2024/04/02 02:57:40;;;;;;;;;5.00;2.75;;;;;13.25;100.00;100099.84;2098561;28;46171;-68
2024/04/02 02:58:41;;;;;;;;;4.00;3.33;;;;;13.27;100.00;100099.75;2105635;27;46469;-69
2024/04/02 02:59:44;;;;;;;;;2.67;1.67;;;;;13.27;100.00;100108.63;2106133;27;45111;-68
2024/04/02 03:00:44;;;;;;;;;3.00;2.00;;;;;13.29;100.00;100104.09;2103855;28;46639;-68
2024/04/02 03:01:44;;;;;;;;;2.33;1.67;;;;;13.31;100.00;100098.69;2105036;28;45571;-68
2024/04/02 03:02:45;;;;;;;;;3.00;1.67;;;;;13.29;100.00;100100.56;2111929;27;46552;-69
2024/04/02 03:03:47;;;;;;;;;2.00;2.00;;;;;13.27;100.00;100102.44;2105519;27;46675;-70
2024/04/02 03:04:50;;;;;;;;;2.00;2.00;;;;;13.26;100.00;100106.88;2097577;28;45835;-69
2024/04/02 03:05:55;;;;;;;;;2.00;0.00;;;;;13.25;100.00;100114.03;2105399;28;45887;-69
2024/04/02 03:06:55;;;;;;;;;2.75;2.75;;;;;13.21;100.00;100123.09;2110977;27;46742;-68
2024/04/02 03:07:55;;;;;;;;;1.67;1.67;;;;;13.25;100.00;100124.69;2105780;27;45486;-69
2024/04/02 03:08:56;;;;;;;;;1.33;1.33;;;;;13.19;100.00;100116.94;2095943;28;46373;-69
2024/04/02 03:09:56;;;;;;;;;1.67;1.00;;;;;13.29;100.00;100120.06;2095625;28;46398;-70
2024/04/02 03:11:01;;;;;;;;;1.00;1.00;;;;;13.31;100.00;100122.69;2106094;28;46228;-69
2024/04/02 03:12:04;;;;;;;;;2.00;2.00;;;;;13.35;100.00;100129.63;2101701;28;46373;-68
2024/04/02 03:13:05;;;;;;;;;2.25;2.25;;;;;13.34;100.00;100125.19;2105528;28;46763;-68
2024/04/02 03:14:05;;;;;;;;;2.00;1.00;;;;;13.36;100.00;100126.03;2105627;27;46348;-71
2024/04/02 03:15:05;;;;;;;;;4.00;1.00;;;;;13.35;100.00;100122.50;2105494;27;46125;-70
2024/04/02 03:16:06;;;;;;;;;2.00;2.00;;;;;13.36;100.00;100120.69;2105541;27;46564;-70
2024/04/02 03:17:06;;;;;;;;;3.00;2.00;;;;;13.36;100.00;100132.22;2105546;27;46279;-69
2024/04/02 03:18:07;;;;;;;;;2.00;1.00;;;;;13.39;100.00;100125.91;2102836;27;47106;-70
2024/04/02 03:19:07;;;;;;;;;1.00;1.00;;;;;13.39;100.00;100121.44;2105124;27;46518;-70
2024/04/02 03:20:08;;;;;;;;;1.00;1.00;;;;;13.40;100.00;100124.97;2104534;27;46796;-69
2024/04/02 03:21:15;;;;;;;;;1.00;1.00;;;;;13.41;100.00;100132.88;2105663;27;46768;-69
2024/04/02 03:22:15;;;;;;;;;2.50;1.50;;;;;13.47;100.00;100121.97;2105035;28;46341;-69
2024/04/02 03:23:20;;;;;;;;;2.33;1.33;;;;;13.51;100.00;100120.03;2105481;28;47016;-70
2024/04/02 03:24:20;;;;;;;;;3.00;1.50;;;;;13.50;100.00;100115.63;2102309;27;46066;-70
2024/04/02 03:25:20;;;;;;;;;1.67;1.67;;;;;13.52;100.00;100130.63;2105885;28;45988;-69
2024/04/02 03:26:20;;;;;;;;;4.00;2.00;;;;;13.53;100.00;100131.50;2101870;28;45942;-70
2024/04/02 03:27:21;;;;;;;;;3.33;1.00;;;;;13.67;100.00;100131.75;2105487;27;46551;-69
2024/04/02 03:28:23;;;;;;;;;1.00;1.00;;;;;13.71;100.00;100138.69;2105392;27;46720;-70
2024/04/02 03:29:23;;;;;;;;;2.75;2.25;;;;;13.74;100.00;100132.38;2100969;28;46193;-69
2024/04/02 03:30:24;;;;;;;;;2.00;2.00;;;;;13.75;100.00;100134.09;2104300;27;46294;-70
2024/04/02 03:31:24;;;;;;;;;2.00;1.00;;;;;13.67;100.00;100128.22;2104758;28;45660;-69
2024/04/02 03:32:24;;;;;;;;;1.00;1.00;;;;;13.63;100.00;100131.97;2105031;28;46535;-70
2024/04/02 03:33:26;;;;;;;;;1.00;1.00;;;;;13.72;100.00;100136.88;2100399;28;46177;-68
2024/04/02 03:34:27;;;;;;;;;1.50;1.50;;;;;13.71;100.00;100127.16;2102957;28;46907;-70
2024/04/02 03:35:27;;;;;;;;;1.75;1.00;;;;;13.69;100.00;100140.56;2105689;27;46474;-69
2024/04/02 03:36:28;;;;;;;;;2.33;2.00;;;;;13.68;100.00;100137.97;2095779;28;46240;-69
2024/04/02 03:37:28;;;;;;;;;2.00;1.00;;;;;13.67;100.00;100126.44;2096186;28;46920;-70
2024/04/02 03:38:29;;;;;;;;;2.00;1.00;;;;;13.63;100.00;100135.50;2098397;28;46296;-69
2024/04/02 03:39:29;;;;;;;;;3.00;2.00;;;;;13.66;100.00;100138.03;2102184;28;46456;-69
2024/04/02 03:40:34;;;;;;;;;0.00;0.00;;;;;13.74;100.00;100141.25;2105518;27;45490;-68
2024/04/02 03:41:36;;;;;;;;;2.50;1.75;;;;;13.77;100.00;100151.75;2095718;28;46481;-68
2024/04/02 03:42:36;;;;;;;;;1.00;1.00;;;;;13.77;100.00;100145.56;2095566;28;46339;-70
2024/04/02 03:43:38;;;;;;;;;1.00;1.00;;;;;13.77;100.00;100141.09;2105580;27;46673;-69
2024/04/02 03:44:38;;;;;;;;;1.00;0.25;;;;;13.75;100.00;100145.63;2100548;27;46900;-71
2024/04/02 03:45:40;;;;;;;;;2.00;1.00;;;;;13.74;100.00;100141.25;2099677;28;46453;-71
2024/04/02 03:46:40;;;;;;;;;1.25;1.25;;;;;13.79;100.00;100149.88;2105328;27;46339;-69
2024/04/02 03:47:40;;;;;;;;;0.00;0.00;;;;;13.81;100.00;100153.34;2105728;27;46638;-69
2024/04/02 03:48:42;;;;;;;;;4.00;2.00;;;;;13.83;100.00;100158.63;2105582;27;46094;-70
2024/04/02 03:49:44;;;;;;;;;2.00;1.00;;;;;13.85;100.00;100146.09;2104175;27;45244;-69
2024/04/02 03:50:49;;;;;;;;;1.50;1.50;;;;;13.87;100.00;100149.56;2099432;28;46674;-69
2024/04/02 03:51:49;;;;;;;;;1.00;1.00;;;;;13.87;100.00;100146.03;2103020;28;46945;-70
2024/04/02 03:52:49;;;;;;;;;1.00;1.00;;;;;13.89;100.00;100149.50;2105507;28;45161;-71
2024/04/02 03:53:50;;;;;;;;;2.00;1.00;;;;;13.83;100.00;100153.28;2106119;28;45890;-70
2024/04/02 03:54:50;;;;;;;;;1.00;0.33;;;;;13.89;100.00;100160.16;2105537;27;46819;-72
2024/04/02 03:55:58;;;;;;;;;1.00;1.00;;;;;13.89;100.00;100161.03;2105898;27;45031;-71
2024/04/02 03:56:58;;;;;;;;;2.00;1.00;;;;;13.75;100.00;100161.63;2102776;27;46672;-69
2024/04/02 03:57:58;;;;;;;;;1.00;1.00;;;;;13.88;100.00;100155.75;2105886;27;46755;-71
2024/04/02 03:58:59;;;;;;;;;3.00;1.00;;;;;13.89;100.00;100154.84;2105241;27;46137;-70
2024/04/02 04:00:00;;;;;;;;;2.33;2.00;;;;;13.90;100.00;100161.91;2102934;27;46581;-71
2024/04/02 04:01:04;;;;;;;;;1.00;1.00;;;;;13.89;100.00;100163.69;2105471;27;46645;-70
2024/04/02 04:02:04;;;;;;;;;2.00;1.00;;;;;13.91;100.00;100152.97;2105205;28;46539;-70
2024/04/02 04:03:04;;;;;;;;;2.00;1.00;;;;;13.94;100.00;100168.81;2105043;27;46254;-70
2024/04/02 04:04:05;;;;;;;;;3.00;1.00;;;;;13.94;100.00;100172.34;2113298;27;46889;-70
2024/04/02 04:05:05;;;;;;;;;1.00;0.33;;;;;13.93;100.00;100167.09;2113214;27;46460;-70
2024/04/02 04:06:05;;;;;;;;;1.00;1.00;;;;;13.92;100.00;100176.88;2105245;27;46236;-71
2024/04/02 04:07:06;;;;;;;;;2.33;1.00;;;;;13.92;100.00;100168.03;2103381;28;46284;-70
2024/04/02 04:08:06;;;;;;;;;2.67;1.00;;;;;13.80;100.00;100170.28;2105167;27;46348;-71
2024/04/02 04:09:08;;;;;;;;;1.00;1.00;;;;;13.78;100.00;100172.16;2105194;27;46428;-70
2024/04/02 04:10:08;;;;;;;;;1.00;1.00;;;;;13.82;100.00;100171.09;2105639;28;46006;-69
2024/04/02 04:11:08;;;;;;;;;1.00;1.00;;;;;13.88;100.00;100169.97;2105212;28;45900;-70
2024/04/02 04:12:09;;;;;;;;;2.00;1.00;;;;;13.71;100.00;100178.69;2112004;27;46608;-69
2024/04/02 04:13:09;;;;;;;;;0.33;0.33;;;;;13.82;100.00;100168.41;2109995;27;46234;-71
2024/04/02 04:14:09;;;;;;;;;2.00;1.00;;;;;13.75;100.00;100174.09;2112920;27;46587;-70
2024/04/02 04:15:10;;;;;;;;;1.00;1.00;;;;;13.72;100.00;100166.22;2101280;28;45924;-70
2024/04/02 04:16:10;;;;;;;;;1.00;1.00;;;;;13.72;100.00;100176.88;2101921;28;46863;-69
2024/04/02 04:17:10;;;;;;;;;1.00;1.00;;;;;13.89;100.00;100181.50;2104492;28;46625;-68
2024/04/02 04:18:11;;;;;;;;;2.00;0.00;;;;;13.89;100.00;100179.69;2112239;27;46634;-71
2024/04/02 04:19:11;;;;;;;;;2.00;1.00;;;;;13.90;100.00;100189.44;2112796;27;46267;-71
2024/04/02 04:20:11;;;;;;;;;1.67;1.67;;;;;13.90;100.00;100184.09;2112267;27;46707;-72
2024/04/02 04:21:12;;;;;;;;;1.00;1.00;;;;;13.88;100.00;100179.78;2111242;27;46710;-70
2024/04/02 04:22:12;;;;;;;;;0.00;0.00;;;;;13.87;100.00;100183.38;2104213;28;46868;-72
2024/04/02 04:23:12;;;;;;;;;1.00;1.00;;;;;13.85;100.00;100178.13;2112520;27;46367;-71
2024/04/02 04:24:12;;;;;;;;;2.00;1.00;;;;;13.83;100.00;100185.28;2110618;27;46304;-70
2024/04/02 04:25:13;;;;;;;;;2.33;1.00;;;;;13.83;100.00;100185.28;2112713;27;45667;-71
2024/04/02 04:26:14;;;;;;;;;2.00;0.00;;;;;13.80;100.00;100186.28;2112205;27;46334;-70
2024/04/02 04:27:15;;;;;;;;;1.00;1.00;;;;;13.80;100.00;100202.28;2112637;27;46125;-70
2024/04/02 04:28:15;;;;;;;;;1.67;1.00;;;;;13.79;100.00;100192.56;2106133;27;46760;-70
2024/04/02 04:29:15;;;;;;;;;3.00;1.67;;;;;13.76;100.00;100190.03;2109020;27;46802;-71
2024/04/02 04:30:16;;;;;;;;;1.00;1.00;;;;;13.75;100.00;100188.31;2113060;27;45816;-70
2024/04/02 04:31:16;;;;;;;;;1.00;1.00;;;;;13.72;100.00;100183.13;2112769;27;45844;-71
2024/04/02 04:32:16;;;;;;;;;1.00;1.00;;;;;13.71;100.00;100185.81;2112713;27;46740;-71
2024/04/02 04:33:16;;;;;;;;;1.00;1.00;;;;;13.69;100.00;100187.69;2112552;27;46818;-69
2024/04/02 04:34:17;;;;;;;;;1.33;1.33;;;;;13.67;100.00;100192.22;2112653;27;46691;-70
2024/04/02 04:35:17;;;;;;;;;1.67;0.33;;;;;13.63;100.00;100196.81;2112986;27;45830;-71
2024/04/02 04:36:18;;;;;;;;;2.00;1.00;;;;;13.58;100.00;100196.13;2106788;27;46456;-69
2024/04/02 04:37:18;;;;;;;;;2.00;1.00;;;;;13.61;100.00;100198.69;2106525;27;46476;-70
2024/04/02 04:38:20;;;;;;;;;1.00;1.00;;;;;13.61;100.00;100192.50;2112933;27;46100;-71
2024/04/02 04:39:20;;;;;;;;;2.00;2.00;;;;;13.67;100.00;100192.22;2110572;27;46137;-71
2024/04/02 04:40:20;;;;;;;;;2.00;0.00;;;;;13.67;100.00;100198.41;2111697;27;45300;-70